sensor_id;sensor_type;location;lat;lon;timestamp;temperature;humidity
64858;SHT30;51335;51.148;6.950;2022-11-21T00:00:15;7.16;98.96
64858;SHT30;51335;51.148;6.950;2022-11-21T00:00:48;7.12;99.07
64858;SHT30;51335;51.148;6.950;2022-11-21T00:01:48;7.16;99.04
64858;SHT30;51335;51.148;6.950;2022-11-21T00:02:19;7.10;99.14
64858;SHT30;51335;51.148;6.950;2022-11-21T00:02:49;7.07;99.45
64858;SHT30;51335;51.148;6.950;2022-11-21T00:03:20;7.10;99.37
64858;SHT30;51335;51.148;6.950;2022-11-21T00:03:50;7.12;98.97
64858;SHT30;51335;51.148;6.950;2022-11-21T00:04:20;7.06;99.00
64858;SHT30;51335;51.148;6.950;2022-11-21T00:04:51;7.05;99.07
64858;SHT30;51335;51.148;6.950;2022-11-21T00:05:21;7.09;99.11
64858;SHT30;51335;51.148;6.950;2022-11-21T00:05:51;7.10;98.63
64858;SHT30;51335;51.148;6.950;2022-11-21T00:06:21;7.13;98.77
64858;SHT30;51335;51.148;6.950;2022-11-21T00:06:52;7.12;98.66
64858;SHT30;51335;51.148;6.950;2022-11-21T00:07:22;7.09;98.88
64858;SHT30;51335;51.148;6.950;2022-11-21T00:07:53;7.09;98.96
64858;SHT30;51335;51.148;6.950;2022-11-21T00:08:24;7.12;98.90
64858;SHT30;51335;51.148;6.950;2022-11-21T00:08:55;7.13;98.76
64858;SHT30;51335;51.148;6.950;2022-11-21T00:09:25;7.12;98.67
64858;SHT30;51335;51.148;6.950;2022-11-21T00:09:55;7.16;98.69
64858;SHT30;51335;51.148;6.950;2022-11-21T00:10:25;7.13;98.61
64858;SHT30;51335;51.148;6.950;2022-11-21T00:10:58;7.16;98.54
64858;SHT30;51335;51.148;6.950;2022-11-21T00:11:28;7.12;98.55
64858;SHT30;51335;51.148;6.950;2022-11-21T00:11:58;7.13;98.59
64858;SHT30;51335;51.148;6.950;2022-11-21T00:12:28;7.12;98.72
64858;SHT30;51335;51.148;6.950;2022-11-21T00:12:59;7.13;98.91
64858;SHT30;51335;51.148;6.950;2022-11-21T00:13:29;7.10;98.94
64858;SHT30;51335;51.148;6.950;2022-11-21T00:13:59;7.07;99.03
64858;SHT30;51335;51.148;6.950;2022-11-21T00:14:30;7.09;98.93
64858;SHT30;51335;51.148;6.950;2022-11-21T00:15:00;7.07;99.08
64858;SHT30;51335;51.148;6.950;2022-11-21T00:15:30;7.09;99.10
64858;SHT30;51335;51.148;6.950;2022-11-21T00:16:05;7.03;98.98
64858;SHT30;51335;51.148;6.950;2022-11-21T00:16:36;7.07;99.06
64858;SHT30;51335;51.148;6.950;2022-11-21T00:17:06;7.06;99.07
64858;SHT30;51335;51.148;6.950;2022-11-21T00:17:37;7.06;99.25
64858;SHT30;51335;51.148;6.950;2022-11-21T00:18:07;7.06;99.11
64858;SHT30;51335;51.148;6.950;2022-11-21T00:18:37;7.02;99.00
64858;SHT30;51335;51.148;6.950;2022-11-21T00:19:09;6.98;99.12
64858;SHT30;51335;51.148;6.950;2022-11-21T00:19:39;6.96;99.25
64858;SHT30;51335;51.148;6.950;2022-11-21T00:20:10;6.93;99.52
64858;SHT30;51335;51.148;6.950;2022-11-21T00:20:41;6.92;99.52
64858;SHT30;51335;51.148;6.950;2022-11-21T00:21:14;6.93;99.09
64858;SHT30;51335;51.148;6.950;2022-11-21T00:21:44;7.00;98.70
64858;SHT30;51335;51.148;6.950;2022-11-21T00:22:15;6.89;98.66
64858;SHT30;51335;51.148;6.950;2022-11-21T00:22:45;6.89;98.71
64858;SHT30;51335;51.148;6.950;2022-11-21T00:23:15;6.86;98.83
64858;SHT30;51335;51.148;6.950;2022-11-21T00:23:46;6.89;98.93
64858;SHT30;51335;51.148;6.950;2022-11-21T00:24:16;6.86;99.06
64858;SHT30;51335;51.148;6.950;2022-11-21T00:24:47;6.96;98.85
64858;SHT30;51335;51.148;6.950;2022-11-21T00:25:17;7.03;98.36
64858;SHT30;51335;51.148;6.950;2022-11-21T00:25:47;6.95;98.23
64858;SHT30;51335;51.148;6.950;2022-11-21T00:26:17;6.93;98.05
64858;SHT30;51335;51.148;6.950;2022-11-21T00:26:48;6.91;97.99
64858;SHT30;51335;51.148;6.950;2022-11-21T00:27:18;6.96;97.98
64858;SHT30;51335;51.148;6.950;2022-11-21T00:27:48;7.03;97.75
64858;SHT30;51335;51.148;6.950;2022-11-21T00:28:18;6.88;97.43
64858;SHT30;51335;51.148;6.950;2022-11-21T00:28:49;6.81;97.86
64858;SHT30;51335;51.148;6.950;2022-11-21T00:29:19;6.78;98.19
64858;SHT30;51335;51.148;6.950;2022-11-21T00:29:49;6.71;98.03
64858;SHT30;51335;51.148;6.950;2022-11-21T00:30:20;6.65;98.30
64858;SHT30;51335;51.148;6.950;2022-11-21T00:30:50;6.65;98.34
64858;SHT30;51335;51.148;6.950;2022-11-21T00:31:22;6.74;98.25
64858;SHT30;51335;51.148;6.950;2022-11-21T00:31:52;6.67;98.41
64858;SHT30;51335;51.148;6.950;2022-11-21T00:32:22;6.67;98.62
64858;SHT30;51335;51.148;6.950;2022-11-21T00:32:52;6.65;98.62
64858;SHT30;51335;51.148;6.950;2022-11-21T00:33:23;6.65;98.66
64858;SHT30;51335;51.148;6.950;2022-11-21T00:33:53;6.63;98.68
64858;SHT30;51335;51.148;6.950;2022-11-21T00:34:23;6.58;98.46
64858;SHT30;51335;51.148;6.950;2022-11-21T00:34:53;6.57;98.59
64858;SHT30;51335;51.148;6.950;2022-11-21T00:35:24;6.55;98.61
64858;SHT30;51335;51.148;6.950;2022-11-21T00:35:54;6.51;98.72
64858;SHT30;51335;51.148;6.950;2022-11-21T00:36:24;6.48;98.94
64858;SHT30;51335;51.148;6.950;2022-11-21T00:36:54;6.45;99.10
64858;SHT30;51335;51.148;6.950;2022-11-21T00:37:25;6.42;99.24
64858;SHT30;51335;51.148;6.950;2022-11-21T00:37:55;6.47;99.38
64858;SHT30;51335;51.148;6.950;2022-11-21T00:38:26;6.44;99.29
64858;SHT30;51335;51.148;6.950;2022-11-21T00:38:56;6.47;99.27
64858;SHT30;51335;51.148;6.950;2022-11-21T00:39:27;6.47;99.24
64858;SHT30;51335;51.148;6.950;2022-11-21T00:39:57;6.48;99.18
64858;SHT30;51335;51.148;6.950;2022-11-21T00:40:27;6.48;99.22
64858;SHT30;51335;51.148;6.950;2022-11-21T00:40:57;6.47;99.03
64858;SHT30;51335;51.148;6.950;2022-11-21T00:41:28;6.49;99.05
64858;SHT30;51335;51.148;6.950;2022-11-21T00:41:58;6.57;98.81
64858;SHT30;51335;51.148;6.950;2022-11-21T00:42:28;6.54;98.78
64858;SHT30;51335;51.148;6.950;2022-11-21T00:42:58;6.51;98.86
64858;SHT30;51335;51.148;6.950;2022-11-21T00:43:29;6.48;98.82
64858;SHT30;51335;51.148;6.950;2022-11-21T00:43:59;6.55;98.84
64858;SHT30;51335;51.148;6.950;2022-11-21T00:44:29;6.64;98.58
64858;SHT30;51335;51.148;6.950;2022-11-21T00:44:59;6.63;98.36
64858;SHT30;51335;51.148;6.950;2022-11-21T00:45:30;6.65;98.27
64858;SHT30;51335;51.148;6.950;2022-11-21T00:46:00;6.74;97.95
64858;SHT30;51335;51.148;6.950;2022-11-21T00:46:31;6.67;97.86
64858;SHT30;51335;51.148;6.950;2022-11-21T00:47:01;6.61;97.87
64858;SHT30;51335;51.148;6.950;2022-11-21T00:47:31;6.64;97.95
64858;SHT30;51335;51.148;6.950;2022-11-21T00:48:01;6.58;98.28
64858;SHT30;51335;51.148;6.950;2022-11-21T00:48:32;6.54;98.33
64858;SHT30;51335;51.148;6.950;2022-11-21T00:49:02;6.51;98.55
64858;SHT30;51335;51.148;6.950;2022-11-21T00:49:32;6.49;98.63
64858;SHT30;51335;51.148;6.950;2022-11-21T00:50:03;6.47;98.63
64858;SHT30;51335;51.148;6.950;2022-11-21T00:50:33;6.40;98.95
64858;SHT30;51335;51.148;6.950;2022-11-21T00:51:04;6.42;98.84
64858;SHT30;51335;51.148;6.950;2022-11-21T00:51:34;6.37;98.94
64858;SHT30;51335;51.148;6.950;2022-11-21T00:52:04;6.33;99.12
64858;SHT30;51335;51.148;6.950;2022-11-21T00:52:34;6.37;99.13
64858;SHT30;51335;51.148;6.950;2022-11-21T00:53:05;6.33;99.06
64858;SHT30;51335;51.148;6.950;2022-11-21T00:53:35;6.31;99.06
64858;SHT30;51335;51.148;6.950;2022-11-21T00:54:05;6.31;99.25
64858;SHT30;51335;51.148;6.950;2022-11-21T00:54:35;6.30;99.42
64858;SHT30;51335;51.148;6.950;2022-11-21T00:55:06;6.38;99.20
64858;SHT30;51335;51.148;6.950;2022-11-21T00:55:36;6.41;98.98
64858;SHT30;51335;51.148;6.950;2022-11-21T00:56:06;6.38;99.06
64858;SHT30;51335;51.148;6.950;2022-11-21T00:56:37;6.33;98.98
64858;SHT30;51335;51.148;6.950;2022-11-21T00:57:07;6.33;98.96
64858;SHT30;51335;51.148;6.950;2022-11-21T00:57:37;6.33;99.14
64858;SHT30;51335;51.148;6.950;2022-11-21T00:58:08;6.27;99.29
64858;SHT30;51335;51.148;6.950;2022-11-21T00:58:38;6.23;99.50
64858;SHT30;51335;51.148;6.950;2022-11-21T00:59:08;6.27;99.52
64858;SHT30;51335;51.148;6.950;2022-11-21T00:59:38;6.36;99.10
64858;SHT30;51335;51.148;6.950;2022-11-21T01:00:09;6.42;98.89
64858;SHT30;51335;51.148;6.950;2022-11-21T01:00:39;6.45;98.39
64858;SHT30;51335;51.148;6.950;2022-11-21T01:01:12;6.45;97.91
64858;SHT30;51335;51.148;6.950;2022-11-21T01:01:43;6.42;97.75
64858;SHT30;51335;51.148;6.950;2022-11-21T01:02:13;6.30;97.95
64858;SHT30;51335;51.148;6.950;2022-11-21T01:02:43;6.23;98.20
64858;SHT30;51335;51.148;6.950;2022-11-21T01:03:14;6.21;98.36
64858;SHT30;51335;51.148;6.950;2022-11-21T01:03:44;6.06;98.25
64858;SHT30;51335;51.148;6.950;2022-11-21T01:04:14;5.99;98.51
64858;SHT30;51335;51.148;6.950;2022-11-21T01:04:45;6.00;98.61
64858;SHT30;51335;51.148;6.950;2022-11-21T01:05:15;5.92;98.72
64858;SHT30;51335;51.148;6.950;2022-11-21T01:05:45;5.89;99.08
64858;SHT30;51335;51.148;6.950;2022-11-21T01:06:15;5.90;99.25
64858;SHT30;51335;51.148;6.950;2022-11-21T01:06:46;5.89;99.47
64858;SHT30;51335;51.148;6.950;2022-11-21T01:07:16;5.92;99.57
64858;SHT30;51335;51.148;6.950;2022-11-21T01:07:49;5.89;99.59
64858;SHT30;51335;51.148;6.950;2022-11-21T01:08:20;5.89;99.62
64858;SHT30;51335;51.148;6.950;2022-11-21T01:08:50;5.90;99.72
64858;SHT30;51335;51.148;6.950;2022-11-21T01:09:20;5.90;99.89
64858;SHT30;51335;51.148;6.950;2022-11-21T01:09:51;5.95;99.69
64858;SHT30;51335;51.148;6.950;2022-11-21T01:10:21;5.95;99.65
64858;SHT30;51335;51.148;6.950;2022-11-21T01:10:51;5.96;99.54
64858;SHT30;51335;51.148;6.950;2022-11-21T01:11:22;6.03;99.49
64858;SHT30;51335;51.148;6.950;2022-11-21T01:11:52;6.00;99.38
64858;SHT30;51335;51.148;6.950;2022-11-21T01:12:22;5.96;99.17
64858;SHT30;51335;51.148;6.950;2022-11-21T01:12:53;5.99;99.29
64858;SHT30;51335;51.148;6.950;2022-11-21T01:13:23;6.07;99.15
64858;SHT30;51335;51.148;6.950;2022-11-21T01:13:53;6.05;98.93
64858;SHT30;51335;51.148;6.950;2022-11-21T01:14:23;5.98;98.92
64858;SHT30;51335;51.148;6.950;2022-11-21T01:14:54;6.02;98.97
64858;SHT30;51335;51.148;6.950;2022-11-21T01:15:24;5.93;98.87
64858;SHT30;51335;51.148;6.950;2022-11-21T01:15:54;5.98;99.07
64858;SHT30;51335;51.148;6.950;2022-11-21T01:16:26;5.95;99.10
64858;SHT30;51335;51.148;6.950;2022-11-21T01:16:56;5.90;99.13
64858;SHT30;51335;51.148;6.950;2022-11-21T01:17:26;5.90;99.16
64858;SHT30;51335;51.148;6.950;2022-11-21T01:17:57;5.89;99.19
64858;SHT30;51335;51.148;6.950;2022-11-21T01:18:27;5.85;99.30
64858;SHT30;51335;51.148;6.950;2022-11-21T01:18:57;5.83;99.22
64858;SHT30;51335;51.148;6.950;2022-11-21T01:19:27;5.82;99.41
64858;SHT30;51335;51.148;6.950;2022-11-21T01:19:58;5.83;99.53
64858;SHT30;51335;51.148;6.950;2022-11-21T01:20:28;5.79;99.41
64858;SHT30;51335;51.148;6.950;2022-11-21T01:21:00;5.86;99.38
64858;SHT30;51335;51.148;6.950;2022-11-21T01:21:31;5.92;99.18
64858;SHT30;51335;51.148;6.950;2022-11-21T01:22:01;5.99;98.90
64858;SHT30;51335;51.148;6.950;2022-11-21T01:22:32;6.05;98.55
64858;SHT30;51335;51.148;6.950;2022-11-21T01:23:02;6.06;98.40
64858;SHT30;51335;51.148;6.950;2022-11-21T01:23:32;6.06;98.27
64858;SHT30;51335;51.148;6.950;2022-11-21T01:24:03;6.05;98.31
64858;SHT30;51335;51.148;6.950;2022-11-21T01:24:33;6.03;98.30
64858;SHT30;51335;51.148;6.950;2022-11-21T01:25:04;6.00;98.38
64858;SHT30;51335;51.148;6.950;2022-11-21T01:25:35;6.05;98.48
64858;SHT30;51335;51.148;6.950;2022-11-21T01:26:11;6.11;98.29
64858;SHT30;51335;51.148;6.950;2022-11-21T01:26:42;6.07;98.13
64858;SHT30;51335;51.148;6.950;2022-11-21T01:27:12;6.03;98.18
64858;SHT30;51335;51.148;6.950;2022-11-21T01:27:42;6.02;98.22
64858;SHT30;51335;51.148;6.950;2022-11-21T01:28:12;6.05;98.38
64858;SHT30;51335;51.148;6.950;2022-11-21T01:28:43;6.07;98.34
64858;SHT30;51335;51.148;6.950;2022-11-21T01:29:13;6.09;98.17
64858;SHT30;51335;51.148;6.950;2022-11-21T01:29:43;6.13;98.06
64858;SHT30;51335;51.148;6.950;2022-11-21T01:30:14;6.17;97.86
64858;SHT30;51335;51.148;6.950;2022-11-21T01:30:44;6.21;97.67
64858;SHT30;51335;51.148;6.950;2022-11-21T01:31:46;6.16;97.33
64858;SHT30;51335;51.148;6.950;2022-11-21T01:32:17;6.14;97.44
64858;SHT30;51335;51.148;6.950;2022-11-21T01:32:47;6.00;97.37
64858;SHT30;51335;51.148;6.950;2022-11-21T01:33:18;5.90;97.71
64858;SHT30;51335;51.148;6.950;2022-11-21T01:33:48;5.90;97.95
64858;SHT30;51335;51.148;6.950;2022-11-21T01:34:19;5.95;98.05
64858;SHT30;51335;51.148;6.950;2022-11-21T01:34:49;5.99;97.98
64858;SHT30;51335;51.148;6.950;2022-11-21T01:35:19;5.99;97.93
64858;SHT30;51335;51.148;6.950;2022-11-21T01:35:49;5.95;97.96
64858;SHT30;51335;51.148;6.950;2022-11-21T01:36:31;5.98;97.97
64858;SHT30;51335;51.148;6.950;2022-11-21T01:37:02;5.88;97.97
64858;SHT30;51335;51.148;6.950;2022-11-21T01:37:32;5.83;98.12
64858;SHT30;51335;51.148;6.950;2022-11-21T01:38:02;5.75;98.32
64858;SHT30;51335;51.148;6.950;2022-11-21T01:38:32;5.69;98.60
64858;SHT30;51335;51.148;6.950;2022-11-21T01:39:04;5.66;98.87
64858;SHT30;51335;51.148;6.950;2022-11-21T01:39:35;5.62;98.97
64858;SHT30;51335;51.148;6.950;2022-11-21T01:40:05;5.56;99.11
64858;SHT30;51335;51.148;6.950;2022-11-21T01:40:39;5.52;99.19
64858;SHT30;51335;51.148;6.950;2022-11-21T01:41:11;5.61;99.29
64858;SHT30;51335;51.148;6.950;2022-11-21T01:41:43;5.63;98.93
64858;SHT30;51335;51.148;6.950;2022-11-21T01:42:14;5.56;99.06
64858;SHT30;51335;51.148;6.950;2022-11-21T01:42:52;5.54;99.19
64858;SHT30;51335;51.148;6.950;2022-11-21T01:43:23;5.58;98.99
64858;SHT30;51335;51.148;6.950;2022-11-21T01:43:53;5.59;99.14
64858;SHT30;51335;51.148;6.950;2022-11-21T01:45:49;5.56;99.47
64858;SHT30;51335;51.148;6.950;2022-11-21T01:46:21;5.52;99.46
64858;SHT30;51335;51.148;6.950;2022-11-21T01:46:52;5.51;99.51
64858;SHT30;51335;51.148;6.950;2022-11-21T01:47:22;5.51;99.55
64858;SHT30;51335;51.148;6.950;2022-11-21T01:47:52;5.52;99.54
64858;SHT30;51335;51.148;6.950;2022-11-21T01:49:00;5.51;99.56
64858;SHT30;51335;51.148;6.950;2022-11-21T01:49:32;5.51;99.72
64858;SHT30;51335;51.148;6.950;2022-11-21T01:50:02;5.51;99.63
64858;SHT30;51335;51.148;6.950;2022-11-21T01:50:32;5.54;99.54
64858;SHT30;51335;51.148;6.950;2022-11-21T01:51:30;5.66;99.42
64858;SHT30;51335;51.148;6.950;2022-11-21T01:52:03;5.79;98.97
64858;SHT30;51335;51.148;6.950;2022-11-21T01:52:36;5.85;98.62
64858;SHT30;51335;51.148;6.950;2022-11-21T01:53:07;5.85;98.24
64858;SHT30;51335;51.148;6.950;2022-11-21T01:53:39;5.88;98.20
64858;SHT30;51335;51.148;6.950;2022-11-21T01:55:16;5.72;98.38
64858;SHT30;51335;51.148;6.950;2022-11-21T01:55:47;5.73;98.51
64858;SHT30;51335;51.148;6.950;2022-11-21T01:56:18;5.76;98.47
64858;SHT30;51335;51.148;6.950;2022-11-21T01:56:54;5.72;98.45
64858;SHT30;51335;51.148;6.950;2022-11-21T01:57:28;5.72;98.68
64858;SHT30;51335;51.148;6.950;2022-11-21T01:58:00;5.76;98.50
64858;SHT30;51335;51.148;6.950;2022-11-21T01:58:33;5.88;98.32
64858;SHT30;51335;51.148;6.950;2022-11-21T01:59:05;5.89;98.03
64858;SHT30;51335;51.148;6.950;2022-11-21T01:59:40;5.95;97.76
64858;SHT30;51335;51.148;6.950;2022-11-21T02:00:24;5.89;97.61
64858;SHT30;51335;51.148;6.950;2022-11-21T02:00:56;5.96;97.76
64858;SHT30;51335;51.148;6.950;2022-11-21T02:01:26;5.96;97.66
64858;SHT30;51335;51.148;6.950;2022-11-21T02:01:59;5.96;97.54
64858;SHT30;51335;51.148;6.950;2022-11-21T02:02:42;5.93;97.28
64858;SHT30;51335;51.148;6.950;2022-11-21T02:03:15;5.90;97.29
64858;SHT30;51335;51.148;6.950;2022-11-21T02:03:47;5.92;97.41
64858;SHT30;51335;51.148;6.950;2022-11-21T02:04:17;5.82;97.32
64858;SHT30;51335;51.148;6.950;2022-11-21T02:04:49;5.85;97.58
64858;SHT30;51335;51.148;6.950;2022-11-21T02:05:24;5.83;97.54
64858;SHT30;51335;51.148;6.950;2022-11-21T02:05:55;5.80;97.59
64858;SHT30;51335;51.148;6.950;2022-11-21T02:06:26;5.78;97.48
64858;SHT30;51335;51.148;6.950;2022-11-21T02:06:58;5.73;97.71
64858;SHT30;51335;51.148;6.950;2022-11-21T02:07:34;5.72;97.81
64858;SHT30;51335;51.148;6.950;2022-11-21T02:08:13;5.70;97.82
64858;SHT30;51335;51.148;6.950;2022-11-21T02:08:46;5.70;97.92
64858;SHT30;51335;51.148;6.950;2022-11-21T02:09:17;5.69;97.95
64858;SHT30;51335;51.148;6.950;2022-11-21T02:09:51;5.75;97.80
64858;SHT30;51335;51.148;6.950;2022-11-21T02:10:23;5.76;97.62
64858;SHT30;51335;51.148;6.950;2022-11-21T02:11:01;5.75;97.56
64858;SHT30;51335;51.148;6.950;2022-11-21T02:11:37;5.58;97.59
64858;SHT30;51335;51.148;6.950;2022-11-21T02:12:14;5.48;98.00
64858;SHT30;51335;51.148;6.950;2022-11-21T02:12:49;5.45;98.27
64858;SHT30;51335;51.148;6.950;2022-11-21T02:13:20;5.41;98.46
64858;SHT30;51335;51.148;6.950;2022-11-21T02:13:51;5.41;98.53
64858;SHT30;51335;51.148;6.950;2022-11-21T02:14:22;5.40;98.61
64858;SHT30;51335;51.148;6.950;2022-11-21T02:14:53;5.47;98.73
64858;SHT30;51335;51.148;6.950;2022-11-21T02:15:28;5.47;98.61
64858;SHT30;51335;51.148;6.950;2022-11-21T02:15:59;5.55;98.57
64858;SHT30;51335;51.148;6.950;2022-11-21T02:16:29;5.45;98.36
64858;SHT30;51335;51.148;6.950;2022-11-21T02:17:04;5.37;98.62
64858;SHT30;51335;51.148;6.950;2022-11-21T02:17:35;5.34;98.96
64858;SHT30;51335;51.148;6.950;2022-11-21T02:18:08;5.37;98.97
64858;SHT30;51335;51.148;6.950;2022-11-21T02:18:38;5.34;99.06
64858;SHT30;51335;51.148;6.950;2022-11-21T02:19:14;5.41;99.18
64858;SHT30;51335;51.148;6.950;2022-11-21T02:19:56;5.47;98.73
64858;SHT30;51335;51.148;6.950;2022-11-21T02:20:28;5.48;98.49
64858;SHT30;51335;51.148;6.950;2022-11-21T02:21:18;5.56;98.36
64858;SHT30;51335;51.148;6.950;2022-11-21T02:22:10;5.45;98.31
64858;SHT30;51335;51.148;6.950;2022-11-21T02:23:11;5.41;98.46
64858;SHT30;51335;51.148;6.950;2022-11-21T02:23:47;5.37;98.78
64858;SHT30;51335;51.148;6.950;2022-11-21T02:24:30;5.40;98.82
64858;SHT30;51335;51.148;6.950;2022-11-21T02:25:12;5.51;98.74
64858;SHT30;51335;51.148;6.950;2022-11-21T02:25:43;5.61;98.38
64858;SHT30;51335;51.148;6.950;2022-11-21T02:26:13;5.58;98.13
64858;SHT30;51335;51.148;6.950;2022-11-21T02:26:45;5.55;98.04
64858;SHT30;51335;51.148;6.950;2022-11-21T02:27:17;5.52;98.11
64858;SHT30;51335;51.148;6.950;2022-11-21T02:27:49;5.52;98.29
64858;SHT30;51335;51.148;6.950;2022-11-21T02:28:22;5.58;98.22
64858;SHT30;51335;51.148;6.950;2022-11-21T02:28:53;5.50;98.13
64858;SHT30;51335;51.148;6.950;2022-11-21T02:29:24;5.56;98.24
64858;SHT30;51335;51.148;6.950;2022-11-21T02:29:55;5.59;98.09
64858;SHT30;51335;51.148;6.950;2022-11-21T02:30:26;5.54;97.96
64858;SHT30;51335;51.148;6.950;2022-11-21T02:30:57;5.50;98.09
64858;SHT30;51335;51.148;6.950;2022-11-21T02:31:27;5.45;98.28
64858;SHT30;51335;51.148;6.950;2022-11-21T02:32:04;5.41;98.50
64858;SHT30;51335;51.148;6.950;2022-11-21T02:32:41;5.37;98.57
64858;SHT30;51335;51.148;6.950;2022-11-21T02:33:12;5.37;98.60
64858;SHT30;51335;51.148;6.950;2022-11-21T02:33:42;5.35;98.73
64858;SHT30;51335;51.148;6.950;2022-11-21T02:34:12;5.31;98.87
64858;SHT30;51335;51.148;6.950;2022-11-21T02:34:43;5.31;98.94
64858;SHT30;51335;51.148;6.950;2022-11-21T02:35:17;5.28;99.05
64858;SHT30;51335;51.148;6.950;2022-11-21T02:36:00;5.28;99.08
64858;SHT30;51335;51.148;6.950;2022-11-21T02:36:40;5.31;99.11
64858;SHT30;51335;51.148;6.950;2022-11-21T02:37:11;5.28;99.01
64858;SHT30;51335;51.148;6.950;2022-11-21T02:37:42;5.27;99.08
64858;SHT30;51335;51.148;6.950;2022-11-21T02:38:20;5.27;99.22
64858;SHT30;51335;51.148;6.950;2022-11-21T02:38:51;5.28;99.19
64858;SHT30;51335;51.148;6.950;2022-11-21T02:39:25;5.26;99.28
64858;SHT30;51335;51.148;6.950;2022-11-21T02:40:01;5.26;99.32
64858;SHT30;51335;51.148;6.950;2022-11-21T02:40:34;5.32;99.33
64858;SHT30;51335;51.148;6.950;2022-11-21T02:41:19;5.32;98.96
64858;SHT30;51335;51.148;6.950;2022-11-21T02:42:38;5.26;99.37
64858;SHT30;51335;51.148;6.950;2022-11-21T02:43:16;5.30;99.29
64858;SHT30;51335;51.148;6.950;2022-11-21T02:43:55;5.32;99.38
64858;SHT30;51335;51.148;6.950;2022-11-21T02:44:32;5.45;99.17
64858;SHT30;51335;51.148;6.950;2022-11-21T02:45:08;5.51;98.73
64858;SHT30;51335;51.148;6.950;2022-11-21T02:45:44;5.61;98.35
64858;SHT30;51335;51.148;6.950;2022-11-21T02:46:14;5.61;98.17
64858;SHT30;51335;51.148;6.950;2022-11-21T02:46:48;5.58;98.06
64858;SHT30;51335;51.148;6.950;2022-11-21T02:47:21;5.58;98.16
64858;SHT30;51335;51.148;6.950;2022-11-21T02:47:54;5.55;98.24
64858;SHT30;51335;51.148;6.950;2022-11-21T02:48:24;5.51;98.22
64858;SHT30;51335;51.148;6.950;2022-11-21T02:48:55;5.52;98.32
64858;SHT30;51335;51.148;6.950;2022-11-21T02:49:30;5.44;98.40
64858;SHT30;51335;51.148;6.950;2022-11-21T02:50:13;5.44;98.72
64858;SHT30;51335;51.148;6.950;2022-11-21T02:50:45;5.45;98.70
64858;SHT30;51335;51.148;6.950;2022-11-21T02:51:16;5.41;98.68
64858;SHT30;51335;51.148;6.950;2022-11-21T02:51:47;5.41;98.76
64858;SHT30;51335;51.148;6.950;2022-11-21T02:52:17;5.50;98.82
64858;SHT30;51335;51.148;6.950;2022-11-21T02:52:47;5.58;98.65
64858;SHT30;51335;51.148;6.950;2022-11-21T02:53:18;5.58;98.35
64858;SHT30;51335;51.148;6.950;2022-11-21T02:53:48;5.55;98.31
64858;SHT30;51335;51.148;6.950;2022-11-21T02:54:18;5.54;98.38
64858;SHT30;51335;51.148;6.950;2022-11-21T02:54:48;5.48;98.48
64858;SHT30;51335;51.148;6.950;2022-11-21T02:55:19;5.45;98.66
64858;SHT30;51335;51.148;6.950;2022-11-21T02:55:49;5.47;98.70
64858;SHT30;51335;51.148;6.950;2022-11-21T02:56:19;5.45;98.77
64858;SHT30;51335;51.148;6.950;2022-11-21T02:56:50;5.45;98.75
64858;SHT30;51335;51.148;6.950;2022-11-21T02:57:20;5.44;98.87
64858;SHT30;51335;51.148;6.950;2022-11-21T02:57:51;5.47;98.90
64858;SHT30;51335;51.148;6.950;2022-11-21T02:58:21;5.41;99.04
64858;SHT30;51335;51.148;6.950;2022-11-21T02:58:52;5.42;99.12
64858;SHT30;51335;51.148;6.950;2022-11-21T02:59:22;5.41;99.19
64858;SHT30;51335;51.148;6.950;2022-11-21T02:59:52;5.37;99.26
64858;SHT30;51335;51.148;6.950;2022-11-21T03:00:23;5.40;99.27
64858;SHT30;51335;51.148;6.950;2022-11-21T03:00:53;5.44;99.20
64858;SHT30;51335;51.148;6.950;2022-11-21T03:01:23;5.48;99.11
64858;SHT30;51335;51.148;6.950;2022-11-21T03:01:53;5.41;98.93
64858;SHT30;51335;51.148;6.950;2022-11-21T03:02:24;5.41;99.05
64858;SHT30;51335;51.148;6.950;2022-11-21T03:02:54;5.40;98.93
64858;SHT30;51335;51.148;6.950;2022-11-21T03:03:24;5.32;99.06
64858;SHT30;51335;51.148;6.950;2022-11-21T03:03:55;5.35;99.16
64858;SHT30;51335;51.148;6.950;2022-11-21T03:04:25;5.31;99.12
64858;SHT30;51335;51.148;6.950;2022-11-21T03:04:56;5.26;99.40
64858;SHT30;51335;51.148;6.950;2022-11-21T03:05:26;5.27;99.45
64858;SHT30;51335;51.148;6.950;2022-11-21T03:05:57;5.28;99.49
64858;SHT30;51335;51.148;6.950;2022-11-21T03:06:27;5.26;99.59
64858;SHT30;51335;51.148;6.950;2022-11-21T03:06:57;5.27;99.70
64858;SHT30;51335;51.148;6.950;2022-11-21T03:07:27;5.24;99.76
64858;SHT30;51335;51.148;6.950;2022-11-21T03:07:58;5.27;99.70
64858;SHT30;51335;51.148;6.950;2022-11-21T03:08:28;5.27;99.48
64858;SHT30;51335;51.148;6.950;2022-11-21T03:08:58;5.23;99.57
64858;SHT30;51335;51.148;6.950;2022-11-21T03:09:28;5.23;99.60
64858;SHT30;51335;51.148;6.950;2022-11-21T03:09:59;5.23;99.64
64858;SHT30;51335;51.148;6.950;2022-11-21T03:10:29;5.23;99.67
64858;SHT30;51335;51.148;6.950;2022-11-21T03:10:59;5.27;99.59
64858;SHT30;51335;51.148;6.950;2022-11-21T03:11:29;5.23;99.45
64858;SHT30;51335;51.148;6.950;2022-11-21T03:12:07;5.24;99.49
64858;SHT30;51335;51.148;6.950;2022-11-21T03:12:39;5.28;99.40
64858;SHT30;51335;51.148;6.950;2022-11-21T03:13:09;5.28;99.22
64858;SHT30;51335;51.148;6.950;2022-11-21T03:13:40;5.28;99.36
64858;SHT30;51335;51.148;6.950;2022-11-21T03:14:10;5.27;99.31
64858;SHT30;51335;51.148;6.950;2022-11-21T03:14:40;5.27;99.44
64858;SHT30;51335;51.148;6.950;2022-11-21T03:15:12;5.26;99.54
64858;SHT30;51335;51.148;6.950;2022-11-21T03:15:43;5.27;99.60
64858;SHT30;51335;51.148;6.950;2022-11-21T03:16:13;5.23;99.51
64858;SHT30;51335;51.148;6.950;2022-11-21T03:16:43;5.20;99.66
64858;SHT30;51335;51.148;6.950;2022-11-21T03:17:13;5.26;99.69
64858;SHT30;51335;51.148;6.950;2022-11-21T03:17:47;5.32;99.40
64858;SHT30;51335;51.148;6.950;2022-11-21T03:18:17;5.44;98.82
64858;SHT30;51335;51.148;6.950;2022-11-21T03:18:47;5.50;98.47
64858;SHT30;51335;51.148;6.950;2022-11-21T03:19:18;5.47;98.44
64858;SHT30;51335;51.148;6.950;2022-11-21T03:19:48;5.41;98.52
64858;SHT30;51335;51.148;6.950;2022-11-21T03:20:18;5.38;98.56
64858;SHT30;51335;51.148;6.950;2022-11-21T03:20:48;5.34;98.75
64858;SHT30;51335;51.148;6.950;2022-11-21T03:21:19;5.34;98.83
64858;SHT30;51335;51.148;6.950;2022-11-21T03:21:49;5.32;98.96
64858;SHT30;51335;51.148;6.950;2022-11-21T03:22:19;5.34;98.94
64858;SHT30;51335;51.148;6.950;2022-11-21T03:22:50;5.26;99.02
64858;SHT30;51335;51.148;6.950;2022-11-21T03:23:20;5.27;99.23
64858;SHT30;51335;51.148;6.950;2022-11-21T03:23:50;5.23;99.18
64858;SHT30;51335;51.148;6.950;2022-11-21T03:24:21;5.28;99.20
64858;SHT30;51335;51.148;6.950;2022-11-21T03:24:51;5.31;98.88
64858;SHT30;51335;51.148;6.950;2022-11-21T03:25:22;5.30;98.75
64858;SHT30;51335;51.148;6.950;2022-11-21T03:25:52;5.28;98.88
64858;SHT30;51335;51.148;6.950;2022-11-21T03:26:22;5.28;98.95
64858;SHT30;51335;51.148;6.950;2022-11-21T03:26:52;5.30;98.90
64858;SHT30;51335;51.148;6.950;2022-11-21T03:27:23;5.26;98.85
64858;SHT30;51335;51.148;6.950;2022-11-21T03:27:53;5.28;98.82